createdAt,value
2018-04-25T00:01:55.289Z,4.83
2018-04-25T00:04:24.104Z,4.53
2018-04-25T00:06:52.166Z,4.90
2018-04-25T00:09:20.981Z,4.20
2018-04-25T00:11:49.109Z,5.27
2018-04-25T00:14:17.924Z,5.30
2018-04-25T00:16:45.964Z,4.60
2018-04-25T00:19:14.780Z,4.70
2018-04-25T00:21:42.827Z,4.20
2018-04-25T00:24:11.689Z,4.43
2018-04-25T00:26:39.693Z,4.20
2018-04-25T00:29:08.501Z,4.27
2018-04-25T00:31:36.560Z,4.60
2018-04-25T00:34:08.872Z,4.13
2018-04-25T00:36:36.983Z,4.27
2018-04-25T00:39:05.798Z,3.83
2018-04-25T00:41:33.860Z,4.50
2018-04-25T00:44:02.685Z,4.17
2018-04-25T00:46:30.720Z,4.30
2018-04-25T00:48:58.752Z,4.30
2018-04-25T00:51:26.798Z,4.30
2018-04-25T00:53:54.848Z,4.23
2018-04-25T00:56:22.897Z,4.53
2018-04-25T00:58:50.934Z,4.60
2018-04-25T01:01:18.980Z,3.97
2018-04-25T01:03:47.032Z,4.40
2018-04-25T01:06:15.137Z,4.43
2018-04-25T01:08:43.185Z,4.10
2018-04-25T01:11:12.383Z,4.40
2018-04-25T01:13:44.385Z,4.50
2018-04-25T01:16:12.732Z,4.60
2018-04-25T01:18:42.219Z,4.73
2018-04-25T01:21:10.266Z,4.60
2018-04-25T01:23:39.076Z,4.37
2018-04-25T01:26:14.811Z,4.30
2018-04-25T01:28:45.166Z,5.07
2018-04-25T01:56:10.717Z,5.03
2018-04-25T01:58:50.517Z,4.53
2018-04-25T02:01:19.792Z,4.50
2018-04-25T02:03:57.789Z,4.60
2018-04-25T02:06:25.879Z,4.90
2018-04-25T02:08:53.979Z,4.43
2018-04-25T02:11:22.080Z,4.50
2018-04-25T02:13:50.187Z,4.20
2018-04-25T02:16:18.281Z,4.63
2018-04-25T02:18:47.148Z,4.90
2018-04-25T02:21:15.254Z,4.87
2018-04-25T02:23:45.458Z,4.97
2018-04-25T02:26:14.868Z,4.40
2018-04-25T02:28:42.972Z,4.70
2018-04-25T02:31:11.828Z,5.13
2018-04-25T02:33:40.735Z,4.60
2018-04-25T02:36:09.862Z,4.47
2018-04-25T02:38:37.983Z,4.73
2018-04-25T02:41:06.074Z,4.80
2018-04-25T02:43:34.182Z,5.00
2018-04-25T02:46:03.038Z,4.90
2018-04-25T02:48:33.094Z,4.73
2018-04-25T02:51:01.178Z,5.27
2018-04-25T02:53:30.039Z,5.07
2018-04-25T02:55:58.156Z,5.47
2018-04-25T02:58:28.126Z,5.13
2018-04-25T03:00:56.229Z,5.70
2018-04-25T03:03:25.093Z,4.60
2018-04-25T03:05:53.268Z,5.33
2018-04-25T03:08:21.374Z,5.00
2018-04-25T03:10:49.511Z,5.07
2018-04-25T03:13:17.614Z,4.87
2018-04-25T03:15:46.583Z,5.80
2018-04-25T03:18:14.698Z,5.43
2018-04-25T03:20:43.551Z,5.87
2018-04-25T03:23:11.727Z,5.37
2018-04-25T03:25:39.814Z,5.20
2018-04-25T03:28:07.920Z,5.03
2018-04-25T03:30:36.038Z,4.73
2018-04-25T03:33:04.133Z,4.90
2018-04-25T03:35:32.267Z,4.50
2018-04-25T03:38:00.355Z,4.63
2018-04-25T03:40:29.232Z,4.90
2018-04-25T03:42:57.339Z,5.20
2018-04-25T03:45:25.442Z,5.37
2018-04-25T03:47:54.308Z,5.00
2018-04-25T03:50:22.410Z,4.90
2018-04-25T03:52:51.269Z,5.20
2018-04-25T03:55:19.383Z,5.30
2018-04-25T03:57:48.240Z,5.10
2018-04-25T04:00:16.351Z,5.17
2018-04-25T04:02:49.639Z,5.57
2018-04-25T04:05:18.507Z,4.57
2018-04-25T04:07:47.654Z,6.47
2018-04-25T04:10:18.332Z,5.60
2018-04-25T04:12:47.481Z,5.00
2018-04-25T04:18:19.296Z,6.10
2018-04-25T04:20:47.484Z,5.30
2018-04-25T04:23:16.101Z,4.87
2018-04-25T04:25:46.727Z,6.03
2018-04-25T04:28:14.932Z,6.60
2018-04-25T04:30:43.823Z,5.97
2018-04-25T04:33:12.000Z,6.03
2018-04-25T04:35:40.691Z,5.37
2018-04-25T04:38:09.921Z,6.40
2018-04-25T04:40:38.070Z,6.43
2018-04-25T04:43:07.375Z,6.67
2018-04-25T04:45:35.582Z,5.40
2018-04-25T04:48:03.741Z,5.70
2018-04-25T04:50:31.981Z,6.00
2018-04-25T04:53:00.874Z,5.40
2018-04-25T04:55:30.306Z,4.97
2018-04-25T04:57:58.695Z,5.30
2018-04-25T05:00:29.667Z,5.60
2018-04-25T05:02:58.485Z,5.50
2018-04-25T05:05:26.617Z,4.47
2018-04-25T05:07:54.807Z,4.90
2018-04-25T05:10:23.013Z,5.10
2018-04-25T05:12:51.139Z,4.63
2018-04-25T05:15:19.292Z,4.60
2018-04-25T05:17:47.707Z,5.90
2018-04-25T05:20:15.871Z,4.40
2018-04-25T05:22:44.038Z,7.40
2018-04-25T05:25:13.544Z,4.80
2018-04-25T05:27:41.716Z,5.80
2018-04-25T05:30:12.164Z,5.23
2018-04-25T05:32:41.323Z,5.53
2018-04-25T05:35:09.570Z,4.43
2018-04-25T05:37:43.702Z,4.43
2018-04-25T05:40:11.956Z,4.03
2018-04-25T05:42:40.151Z,4.37
2018-04-25T05:45:08.358Z,4.50
2018-04-25T05:47:37.667Z,3.83
2018-04-25T05:50:05.929Z,4.90
2018-04-25T05:52:34.223Z,4.67
2018-04-25T05:55:02.546Z,5.03
2018-04-25T05:57:30.716Z,4.43
2018-04-25T05:59:58.896Z,4.43
2018-04-25T06:02:27.220Z,4.60
2018-04-25T06:04:55.381Z,5.23
2018-04-25T06:07:23.587Z,5.10
2018-04-25T06:09:51.721Z,4.53
2018-04-25T06:12:20.990Z,4.80
2018-04-25T06:14:49.934Z,4.97
2018-04-25T06:17:18.108Z,5.10
2018-04-25T06:19:46.457Z,4.17
2018-04-25T06:22:14.573Z,4.57
2018-04-25T06:24:42.764Z,4.80
2018-04-25T06:27:11.758Z,4.80
2018-04-25T06:29:39.863Z,5.00
2018-04-25T06:32:07.969Z,4.60
2018-04-25T06:34:36.122Z,4.67
2018-04-25T06:37:04.274Z,5.40
2018-04-25T06:39:32.510Z,5.07
2018-04-25T06:42:00.629Z,4.77
2018-04-25T06:44:28.766Z,4.83
2018-04-25T06:46:58.404Z,4.70
2018-04-25T06:49:27.299Z,4.37
2018-04-25T06:51:56.197Z,4.30
2018-04-25T06:54:24.363Z,4.67
2018-04-25T06:56:53.238Z,4.40
2018-04-25T06:59:21.388Z,4.70
2018-04-25T07:01:49.512Z,4.80
2018-04-25T07:04:18.500Z,5.03
2018-04-25T07:06:47.379Z,5.20
2018-04-25T07:09:15.555Z,4.93
2018-04-25T07:11:43.645Z,4.33
2018-04-25T07:14:11.853Z,5.07
2018-04-25T07:16:39.915Z,4.80
2018-04-25T07:19:08.022Z,4.57
2018-04-25T07:21:36.107Z,5.40
2018-04-25T07:24:04.240Z,4.97
2018-04-25T07:26:32.341Z,5.37
2018-04-25T07:29:00.458Z,4.80
2018-04-25T07:31:29.342Z,4.90
2018-04-25T07:33:58.302Z,4.93
2018-04-25T07:36:26.433Z,5.03
2018-04-25T07:38:55.296Z,5.23
2018-04-25T07:41:23.411Z,4.93
2018-04-25T07:43:51.862Z,4.80
2018-04-25T07:46:19.988Z,5.37
2018-04-25T07:48:48.109Z,5.60
2018-04-25T07:51:16.230Z,4.87
2018-04-25T07:53:44.394Z,4.87
2018-04-25T07:56:13.264Z,5.00
2018-04-25T07:58:41.360Z,4.80
2018-04-25T08:01:09.464Z,5.00
2018-04-25T08:03:38.327Z,5.40
2018-04-25T08:06:06.530Z,4.60
2018-04-25T08:08:34.569Z,4.87
2018-04-25T08:11:03.464Z,5.17
2018-04-25T08:13:44.062Z,4.83
2018-04-25T08:16:23.894Z,4.50
2018-04-25T08:19:03.733Z,4.77
2018-04-25T08:21:41.428Z,5.10
2018-04-25T08:24:10.303Z,4.87
2018-04-25T08:26:38.400Z,4.67
2018-04-25T08:29:07.409Z,4.60
2018-04-25T08:31:35.512Z,5.07
2018-04-25T08:34:03.638Z,4.97
2018-04-25T08:36:32.520Z,4.90
2018-04-25T08:39:01.437Z,5.13
2018-04-25T08:41:30.296Z,5.10
2018-04-25T08:43:58.407Z,4.80
2018-04-25T08:46:26.516Z,4.97
2018-04-25T08:48:54.640Z,4.87
2018-04-25T08:51:23.513Z,4.47
2018-04-25T08:53:51.658Z,4.30
2018-04-25T08:56:20.533Z,4.77
2018-04-25T08:58:48.636Z,5.00
2018-04-25T09:01:16.756Z,4.70
2018-04-25T09:03:45.614Z,4.97
2018-04-25T09:06:13.725Z,4.73
2018-04-25T09:08:42.592Z,4.60
2018-04-25T09:11:10.692Z,4.80
2018-04-25T09:13:38.809Z,4.60
2018-04-25T09:16:06.910Z,4.50
2018-04-25T09:18:35.036Z,4.60
2018-04-25T09:21:03.164Z,4.60
2018-04-25T09:23:32.385Z,4.77
2018-04-25T09:26:01.271Z,4.80
2018-04-25T09:28:30.212Z,4.70
2018-04-25T09:30:58.338Z,4.57
2018-04-25T09:33:26.455Z,4.10
2018-04-25T09:35:54.579Z,4.60
2018-04-25T09:38:22.843Z,4.13
2018-04-25T09:40:50.960Z,4.10
2018-04-25T09:43:19.835Z,4.07
2018-04-25T09:45:47.996Z,4.30
2018-04-25T09:48:16.098Z,3.80
2018-04-25T09:50:45.103Z,4.40
2018-04-25T09:53:13.984Z,4.00
2018-04-25T09:55:42.434Z,4.10
2018-04-25T09:58:10.540Z,4.07
2018-04-25T10:00:44.950Z,3.77
2018-04-25T10:03:22.172Z,3.60
2018-04-25T10:05:50.216Z,3.70
2018-04-25T10:08:18.265Z,4.20
2018-04-25T10:10:47.141Z,3.60
2018-04-25T10:13:15.129Z,3.90
2018-04-25T10:15:43.948Z,4.00
2018-04-25T10:18:11.987Z,4.20
2018-04-25T10:20:40.836Z,3.43
2018-04-25T10:23:08.931Z,3.53
2018-04-25T10:25:37.011Z,3.70
2018-04-25T10:28:05.033Z,3.60
2018-04-25T10:30:33.087Z,3.70
2018-04-25T10:33:01.144Z,3.57
2018-04-25T10:35:29.189Z,3.70
2018-04-25T10:37:57.228Z,3.40
2018-04-25T10:40:25.350Z,3.90
2018-04-25T10:42:53.336Z,3.53
2018-04-25T10:45:21.381Z,3.83
2018-04-25T10:47:49.492Z,3.13
2018-04-25T10:50:17.535Z,3.50
2018-04-25T10:52:46.342Z,3.80
2018-04-25T10:55:14.417Z,3.63
2018-04-25T10:57:42.437Z,3.00
2018-04-25T11:00:10.488Z,3.60
2018-04-25T11:02:38.548Z,2.70
2018-04-25T11:05:06.589Z,3.57
2018-04-25T11:07:35.757Z,3.43
2018-04-25T11:10:03.796Z,3.13
2018-04-25T11:12:31.882Z,3.30
2018-04-25T11:14:59.924Z,3.00
2018-04-25T11:17:27.973Z,3.20
2018-04-25T11:19:56.012Z,3.00
2018-04-25T11:22:24.835Z,2.93
2018-04-25T11:24:52.867Z,2.67
2018-04-25T11:27:21.685Z,2.80
2018-04-25T11:29:49.728Z,2.87
2018-04-25T11:32:17.769Z,2.57
2018-04-25T11:34:45.815Z,2.60
2018-04-25T11:37:13.866Z,3.10
2018-04-25T11:39:41.907Z,2.70
2018-04-25T11:42:10.712Z,3.03
2018-04-25T11:44:38.764Z,3.13
2018-04-25T11:47:06.852Z,2.60
2018-04-25T11:49:34.862Z,2.53
2018-04-25T11:52:02.899Z,2.60
2018-04-25T11:54:30.946Z,3.10
2018-04-25T11:56:59.003Z,2.57
2018-04-25T11:59:27.044Z,2.67
2018-04-25T12:01:55.084Z,2.80
2018-04-25T12:04:23.123Z,2.80
2018-04-25T12:06:51.173Z,2.87
2018-04-25T12:09:19.237Z,2.90
2018-04-25T12:11:47.275Z,2.97
2018-04-25T12:14:15.317Z,3.00
2018-04-25T12:16:44.133Z,2.97
2018-04-25T12:19:12.172Z,2.87
2018-04-25T12:21:40.989Z,2.77
2018-04-25T12:24:09.032Z,2.77
2018-04-25T12:26:37.864Z,3.17
2018-04-25T12:29:05.907Z,2.97
2018-04-25T12:31:33.949Z,2.53
2018-04-25T12:34:02.019Z,3.00
2018-04-25T12:36:30.180Z,2.80
2018-04-25T12:38:58.233Z,3.20
2018-04-25T12:41:26.287Z,3.47
2018-04-25T12:43:54.328Z,3.13
2018-04-25T12:46:22.391Z,3.03
2018-04-25T12:48:50.427Z,2.87
2018-04-25T12:51:18.511Z,2.90
2018-04-25T12:53:46.541Z,3.70
2018-04-25T12:56:14.592Z,3.03
2018-04-25T12:58:42.649Z,3.00
2018-04-25T13:01:11.465Z,3.40
2018-04-25T13:03:41.004Z,4.47
2018-04-25T13:06:09.052Z,2.73
2018-04-25T13:08:37.120Z,2.70
2018-04-25T13:11:05.156Z,2.53
2018-04-25T13:13:33.963Z,2.80
2018-04-25T13:16:02.013Z,2.80
2018-04-25T13:18:30.864Z,2.87
2018-04-25T13:20:58.920Z,2.53
2018-04-25T13:23:26.965Z,3.10
2018-04-25T13:25:55.761Z,2.43
2018-04-25T13:28:23.812Z,2.63
2018-04-25T13:30:52.629Z,2.53
2018-04-25T13:33:20.664Z,2.67
2018-04-25T13:35:49.594Z,2.53
2018-04-25T13:38:17.636Z,2.70
2018-04-25T13:40:45.684Z,2.60
2018-04-25T13:43:13.719Z,2.90
2018-04-25T13:45:41.781Z,3.03
2018-04-25T13:48:10.580Z,2.73
2018-04-25T13:50:38.629Z,2.60
2018-04-25T13:53:06.682Z,2.97
2018-04-25T13:55:34.732Z,2.87
2018-04-25T13:58:03.555Z,2.60
2018-04-25T14:00:31.588Z,2.60
2018-04-25T14:03:00.416Z,2.70
2018-04-25T14:05:28.460Z,3.07
2018-04-25T14:07:56.500Z,2.77
2018-04-25T14:10:24.537Z,2.77
2018-04-25T14:12:52.579Z,3.07
2018-04-25T14:15:20.628Z,3.00
2018-04-25T14:17:49.435Z,3.10
2018-04-25T14:20:17.482Z,2.93
2018-04-25T14:22:45.534Z,2.60
2018-04-25T14:25:18.580Z,2.73
2018-04-25T14:27:46.629Z,2.83
2018-04-25T14:30:15.438Z,2.67
2018-04-25T14:32:43.507Z,2.60
2018-04-25T14:35:11.577Z,2.77
2018-04-25T14:37:39.623Z,2.90
2018-04-25T14:40:07.669Z,2.83
2018-04-25T14:42:35.756Z,2.80
2018-04-25T14:45:03.801Z,2.87
2018-04-25T14:47:31.856Z,2.70
2018-04-25T14:49:59.907Z,3.30
2018-04-25T14:52:27.952Z,2.67
2018-04-25T14:54:56.768Z,2.93
2018-04-25T14:57:24.820Z,2.90
2018-04-25T14:59:52.885Z,3.00
2018-04-25T15:02:21.692Z,3.20
2018-04-25T15:04:50.514Z,3.13
2018-04-25T15:07:18.564Z,3.00
2018-04-25T15:09:46.609Z,3.03
2018-04-25T15:12:14.649Z,3.27
2018-04-25T15:14:42.697Z,2.80
2018-04-25T15:17:10.739Z,3.10
2018-04-25T15:19:38.807Z,3.00
2018-04-25T15:22:06.832Z,2.90
2018-04-25T15:24:34.886Z,3.10
2018-04-25T15:27:02.921Z,3.10
2018-04-25T15:29:30.975Z,2.70
2018-04-25T15:31:59.016Z,3.10
2018-04-25T15:34:27.065Z,3.20
2018-04-25T15:36:55.104Z,2.90
2018-04-25T15:39:23.156Z,3.10
2018-04-25T15:41:51.196Z,3.63
2018-04-25T15:44:19.249Z,3.20
2018-04-25T15:46:47.322Z,2.93
2018-04-25T15:49:15.416Z,3.47
2018-04-25T15:51:43.561Z,3.40
2018-04-25T15:54:11.631Z,3.23
2018-04-25T15:56:39.775Z,3.37
2018-04-25T15:59:07.824Z,3.50
2018-04-25T16:01:35.874Z,2.90
2018-04-25T16:04:03.917Z,2.70
2018-04-25T16:06:31.968Z,3.10
2018-04-25T16:09:00.022Z,3.10
2018-04-25T16:11:28.072Z,2.80
2018-04-25T16:13:56.888Z,2.70
2018-04-25T16:16:24.929Z,2.87
2018-04-25T16:18:53.795Z,3.00
2018-04-25T16:21:22.002Z,3.07
2018-04-25T16:23:50.024Z,3.03
2018-04-25T16:26:18.076Z,2.97
2018-04-25T16:28:46.243Z,2.90
2018-04-25T16:31:14.329Z,2.77
2018-04-25T16:33:42.372Z,3.00
2018-04-25T16:36:10.503Z,3.43
2018-04-25T16:38:38.535Z,2.73
2018-04-25T16:41:06.556Z,2.87
2018-04-25T16:43:34.618Z,2.77
2018-04-25T16:46:02.744Z,2.40
2018-04-25T16:48:30.820Z,2.20
2018-04-25T16:50:58.912Z,2.27
2018-04-25T16:53:26.937Z,2.87
2018-04-25T16:55:54.991Z,2.40
2018-04-25T16:58:23.804Z,2.23
2018-04-25T17:00:51.837Z,2.40
2018-04-25T17:03:20.656Z,2.40
2018-04-25T17:05:48.729Z,2.40
2018-04-25T17:08:16.772Z,2.43
2018-04-25T17:10:45.588Z,2.20
2018-04-25T17:13:15.168Z,2.30
2018-04-25T17:15:43.996Z,2.60
2018-04-25T17:18:12.076Z,2.47
2018-04-25T17:20:40.553Z,2.40
2018-04-25T17:23:08.604Z,2.27
2018-04-25T17:25:36.657Z,2.40
2018-04-25T17:28:05.465Z,2.50
2018-04-25T17:30:33.504Z,2.10
2018-04-25T17:33:02.311Z,2.37
2018-04-25T17:35:30.352Z,2.83
2018-04-25T17:37:58.400Z,2.60
2018-04-25T17:40:26.485Z,2.43
2018-04-25T17:42:55.595Z,2.47
2018-04-25T17:45:24.315Z,2.20
2018-04-25T17:47:52.383Z,2.03
2018-04-25T17:50:20.469Z,2.33
2018-04-25T17:52:48.513Z,2.70
2018-04-25T17:55:17.377Z,2.57
2018-04-25T17:57:45.419Z,2.83
2018-04-25T18:00:13.473Z,2.77
2018-04-25T18:02:41.517Z,2.97
2018-04-25T18:05:09.584Z,1.87
2018-04-25T18:07:37.680Z,2.50
2018-04-25T18:10:05.755Z,2.43
2018-04-25T18:12:33.788Z,2.40
2018-04-25T18:15:07.437Z,2.50
2018-04-25T18:17:35.625Z,2.40
2018-04-25T18:20:03.677Z,3.83
2018-04-25T18:22:31.733Z,2.77
2018-04-25T18:24:59.801Z,2.70
2018-04-25T18:27:27.844Z,2.80
2018-04-25T18:29:56.656Z,2.27
2018-04-25T18:32:26.730Z,2.37
2018-04-25T18:34:56.756Z,2.70
2018-04-25T18:37:24.887Z,2.70
2018-04-25T18:39:52.861Z,2.53
2018-04-25T18:42:20.912Z,2.70
2018-04-25T18:44:48.967Z,2.70
2018-04-25T18:47:17.008Z,2.93
2018-04-25T18:49:45.050Z,2.57
2018-04-25T18:52:13.420Z,2.60
2018-04-25T18:54:43.402Z,3.00
2018-04-25T18:57:11.467Z,2.80
2018-04-25T18:59:39.504Z,2.93
2018-04-25T19:02:07.560Z,3.10
2018-04-25T19:04:35.599Z,2.90
2018-04-25T19:07:03.649Z,3.23
2018-04-25T19:09:32.450Z,3.33
2018-04-25T19:12:00.492Z,2.97
2018-04-25T19:14:29.301Z,2.60
2018-04-25T19:16:58.104Z,2.83
2018-04-25T19:19:26.143Z,3.40
2018-04-25T19:21:54.972Z,3.27
2018-04-25T19:24:23.017Z,3.50
2018-04-25T19:26:51.088Z,3.57
2018-04-25T19:29:19.893Z,3.37
2018-04-25T19:31:48.033Z,3.30
2018-04-25T19:34:16.092Z,3.23
2018-04-25T19:36:44.154Z,2.77
2018-04-25T19:39:12.257Z,2.77
2018-04-25T19:41:40.308Z,2.70
2018-04-25T19:44:08.365Z,3.00
2018-04-25T19:46:36.417Z,3.20
2018-04-25T19:49:04.521Z,3.13
2018-04-25T19:51:32.687Z,3.30
2018-04-25T19:54:00.753Z,2.60
2018-04-25T19:56:29.857Z,3.10
2018-04-25T19:58:57.917Z,2.70
2018-04-25T20:01:26.038Z,2.73
2018-04-25T20:03:54.100Z,3.57
2018-04-25T20:06:22.142Z,2.43
2018-04-25T20:08:50.215Z,2.20
2018-04-25T20:11:18.274Z,2.00
2018-04-25T20:13:46.404Z,2.80
2018-04-25T20:16:14.377Z,2.47
2018-04-25T20:18:42.442Z,2.70
2018-04-25T20:21:10.484Z,2.20
2018-04-25T20:23:38.617Z,2.10
2018-04-25T20:26:06.669Z,2.87
2018-04-25T20:28:34.712Z,3.47
2018-04-25T20:31:02.763Z,2.47
2018-04-25T20:33:31.696Z,2.17
2018-04-25T20:35:59.755Z,2.40
2018-04-25T20:38:27.825Z,2.17
2018-04-25T20:40:55.867Z,2.20
2018-04-25T20:43:24.685Z,2.20
2018-04-25T20:45:52.732Z,2.60
2018-04-25T20:48:21.553Z,2.80
2018-04-25T20:50:49.597Z,2.37
2018-04-25T20:53:17.662Z,2.17
2018-04-25T20:55:45.704Z,2.30
2018-04-25T20:58:13.760Z,2.10
2018-04-25T21:00:41.842Z,2.30
2018-04-25T21:03:09.980Z,2.20
2018-04-25T21:05:38.044Z,2.30
2018-04-25T21:08:09.258Z,1.80
2018-04-25T21:10:38.076Z,1.90
2018-04-25T21:13:06.145Z,1.87
2018-04-25T21:15:34.204Z,1.90
2018-04-25T21:18:03.053Z,1.80
2018-04-25T21:20:31.105Z,1.80
2018-04-25T21:22:59.165Z,2.07
2018-04-25T21:25:27.299Z,1.97
2018-04-25T21:27:55.389Z,2.10
2018-04-25T21:30:23.457Z,1.77
2018-04-25T21:32:51.492Z,1.60
2018-04-25T21:35:19.538Z,1.90
2018-04-25T21:37:47.576Z,1.87
2018-04-25T21:40:15.621Z,1.70
2018-04-25T21:42:44.437Z,1.97
2018-04-25T21:45:12.529Z,1.63
2018-04-25T21:47:40.593Z,1.13
2018-04-25T21:50:08.694Z,1.30
2018-04-25T21:52:36.749Z,1.30
2018-04-25T21:55:04.806Z,1.20
2018-04-25T21:57:32.860Z,1.20
2018-04-25T22:00:00.900Z,1.37
2018-04-25T22:02:29.718Z,1.40
2018-04-25T22:04:57.762Z,1.20
2018-04-25T22:07:26.633Z,0.97
2018-04-25T22:09:54.679Z,1.20
2018-04-25T22:12:22.728Z,1.13
2018-04-25T22:14:51.899Z,1.10
2018-04-25T22:17:20.705Z,1.10
2018-04-25T22:19:49.667Z,1.37
2018-04-25T22:22:17.920Z,1.20
2018-04-25T22:24:45.957Z,1.20
2018-04-25T22:27:13.980Z,1.27
2018-04-25T22:29:42.804Z,1.30
2018-04-25T22:32:10.915Z,1.07
2018-04-25T22:34:38.952Z,1.37
2018-04-25T22:37:07.005Z,1.13
2018-04-25T22:39:35.047Z,1.00
2018-04-25T22:42:03.103Z,1.10
2018-04-25T22:44:31.143Z,0.97
2018-04-25T22:46:59.269Z,1.10
2018-04-25T22:49:28.071Z,0.93
2018-04-25T22:51:56.132Z,1.10
2018-04-25T22:54:24.943Z,1.10
2018-04-25T22:56:53.004Z,1.20
2018-04-25T22:59:21.808Z,1.07
2018-04-25T23:01:49.851Z,1.10
2018-04-25T23:04:18.661Z,1.10
2018-04-25T23:06:46.714Z,1.23
2018-04-25T23:09:16.716Z,1.20
2018-04-25T23:11:44.765Z,0.97
2018-04-25T23:14:12.805Z,1.13
2018-04-25T23:16:40.851Z,1.60
2018-04-25T23:19:08.902Z,1.50
2018-04-25T23:21:37.720Z,1.60
2018-04-25T23:24:05.764Z,1.57
2018-04-25T23:26:34.584Z,1.70
2018-04-25T23:29:02.633Z,1.80
2018-04-25T23:31:31.440Z,1.93
2018-04-25T23:33:59.489Z,1.50
2018-04-25T23:36:27.540Z,2.20
2018-04-25T23:38:55.587Z,1.80
2018-04-25T23:41:23.692Z,1.63
2018-04-25T23:43:52.520Z,1.60
2018-04-25T23:46:20.614Z,1.60
2018-04-25T23:48:48.728Z,1.57
2018-04-25T23:51:17.533Z,1.60
2018-04-25T23:53:45.568Z,1.60
2018-04-25T23:56:13.616Z,1.70
2018-04-25T23:58:41.657Z,1.57
